createdAt,value
2022-09-22T00:01:37.556Z,62.70
2022-09-22T00:04:07.936Z,62.59
2022-09-22T00:06:38.875Z,62.65
2022-09-22T00:09:09.586Z,62.74
2022-09-22T00:11:40.689Z,62.96
2022-09-22T00:14:10.895Z,62.70
2022-09-22T00:16:42.106Z,62.80
2022-09-22T00:19:13.681Z,62.87
2022-09-22T00:21:41.586Z,63.00
2022-09-22T00:24:09.951Z,63.09
2022-09-22T00:26:40.138Z,63.12
2022-09-22T00:29:10.397Z,63.10
2022-09-22T00:31:40.722Z,63.66
2022-09-22T00:34:13.524Z,63.46
2022-09-22T00:36:41.548Z,63.32
2022-09-22T00:39:09.740Z,63.31
2022-09-22T00:41:41.990Z,63.36
2022-09-22T00:44:32.908Z,63.44
2022-09-22T00:47:04.645Z,63.56
2022-09-22T00:49:38.138Z,63.68
2022-09-22T00:52:06.751Z,63.71
2022-09-22T00:54:35.801Z,63.83
2022-09-22T00:57:09.789Z,63.80
2022-09-22T00:59:38.459Z,63.89
2022-09-22T01:02:07.226Z,63.97
2022-09-22T01:04:35.883Z,63.77
2022-09-22T01:07:27.156Z,63.99
2022-09-22T01:09:56.520Z,64.22
2022-09-22T01:12:27.973Z,64.03
2022-09-22T01:15:19.555Z,64.22
2022-09-22T01:17:59.313Z,64.28
2022-09-22T01:21:06.530Z,64.28
2022-09-22T01:24:03.092Z,64.27
2022-09-22T01:27:12.181Z,64.38
2022-09-22T01:30:07.319Z,64.48
2022-09-22T01:32:44.125Z,64.55
2022-09-22T01:35:20.895Z,64.54
2022-09-22T01:37:59.775Z,64.46
2022-09-22T01:40:34.670Z,64.75
2022-09-22T01:43:10.611Z,64.60
2022-09-22T01:45:43.146Z,64.65
2022-09-22T01:48:15.407Z,64.65
2022-09-22T01:50:47.582Z,64.82
2022-09-22T01:53:20.043Z,64.93
2022-09-22T01:55:56.363Z,65.11
2022-09-22T01:58:30.630Z,65.13
2022-09-22T02:01:04.489Z,65.17
2022-09-22T02:03:39.066Z,64.97
2022-09-22T02:06:11.862Z,65.12
2022-09-22T02:08:46.262Z,65.26
2022-09-22T02:11:16.732Z,65.27
2022-09-22T02:13:47.748Z,65.16
2022-09-22T02:16:19.823Z,65.16
2022-09-22T02:18:51.999Z,65.23
2022-09-22T02:21:21.985Z,65.52
2022-09-22T02:23:50.398Z,65.33
2022-09-22T02:26:24.075Z,65.63
2022-09-22T02:28:55.060Z,65.86
2022-09-22T02:31:29.508Z,65.58
2022-09-22T02:33:57.755Z,65.56
2022-09-22T02:36:44.554Z,65.59
2022-09-22T02:39:18.633Z,65.46
2022-09-22T02:41:58.649Z,65.78
2022-09-22T02:44:32.689Z,65.88
2022-09-22T02:47:08.894Z,65.77
2022-09-22T02:49:37.752Z,66.03
2022-09-22T02:52:10.292Z,65.79
2022-09-22T02:54:39.582Z,66.00
2022-09-22T02:57:07.823Z,66.63
2022-09-22T02:59:35.786Z,65.94
2022-09-22T03:02:08.570Z,66.01
2022-09-22T03:04:36.598Z,66.07
2022-09-22T03:07:05.083Z,66.22
2022-09-22T03:09:44.209Z,66.41
2022-09-22T03:13:14.577Z,66.40
2022-09-22T03:15:36.003Z,66.60
2022-09-22T03:18:05.734Z,66.46
2022-09-22T03:20:33.599Z,66.61
2022-09-22T03:23:04.263Z,66.32
2022-09-22T03:25:32.681Z,66.60
2022-09-22T03:28:00.754Z,66.72
2022-09-22T03:30:28.899Z,66.50
2022-09-22T03:32:58.815Z,66.68
2022-09-22T03:35:28.328Z,66.67
2022-09-22T03:37:56.352Z,66.62
2022-09-22T03:40:24.521Z,67.00
2022-09-22T03:42:52.561Z,67.06
2022-09-22T03:45:20.589Z,66.80
2022-09-22T03:47:48.546Z,66.98
2022-09-22T03:50:16.555Z,66.82
2022-09-22T03:52:46.211Z,66.58
2022-09-22T03:55:14.406Z,67.29
2022-09-22T03:57:43.852Z,67.12
2022-09-22T04:00:14.222Z,67.01
2022-09-22T04:02:42.439Z,67.22
2022-09-22T04:05:11.363Z,67.36
2022-09-22T04:07:39.452Z,67.39
2022-09-22T04:10:09.603Z,67.28
2022-09-22T04:12:39.615Z,67.43
2022-09-22T04:15:08.568Z,67.25
2022-09-22T04:17:37.231Z,67.52
2022-09-22T04:20:07.290Z,67.48
2022-09-22T04:22:35.765Z,67.45
2022-09-22T04:25:03.901Z,67.72
2022-09-22T04:27:33.492Z,67.52
2022-09-22T04:30:02.279Z,67.67
2022-09-22T04:32:30.396Z,67.85
2022-09-22T04:34:58.490Z,67.57
2022-09-22T04:37:26.637Z,67.94
2022-09-22T04:39:55.606Z,67.86
2022-09-22T04:42:23.754Z,67.86
2022-09-22T04:44:53.060Z,68.02
2022-09-22T04:47:20.900Z,67.74
2022-09-22T04:49:48.805Z,67.75
2022-09-22T04:52:16.612Z,67.92
2022-09-22T04:54:47.041Z,68.24
2022-09-22T04:57:19.684Z,68.18
2022-09-22T04:59:49.107Z,68.01
2022-09-22T05:02:19.222Z,68.56
2022-09-22T05:04:47.801Z,68.26
2022-09-22T05:07:16.239Z,68.56
2022-09-22T05:09:44.346Z,68.35
2022-09-22T05:12:12.419Z,68.38
2022-09-22T05:14:40.766Z,68.59
2022-09-22T05:17:09.922Z,68.35
2022-09-22T05:19:39.614Z,68.58
2022-09-22T05:22:07.738Z,68.43
2022-09-22T05:24:35.611Z,68.74
2022-09-22T05:27:06.142Z,69.07
2022-09-22T05:29:34.308Z,68.70
2022-09-22T05:32:02.698Z,68.77
2022-09-22T05:34:31.309Z,68.78
2022-09-22T05:37:00.708Z,69.10
2022-09-22T05:39:28.966Z,69.15
2022-09-22T05:41:57.008Z,69.23
2022-09-22T05:44:25.279Z,69.13
2022-09-22T05:46:53.258Z,69.75
2022-09-22T05:49:21.574Z,69.81
2022-09-22T05:51:52.222Z,69.56
2022-09-22T05:54:23.494Z,69.82
2022-09-22T05:56:51.828Z,69.54
2022-09-22T05:59:19.993Z,70.15
2022-09-22T06:01:48.730Z,70.37
2022-09-22T06:04:16.953Z,70.61
2022-09-22T06:06:45.161Z,70.94
2022-09-22T06:09:16.472Z,70.90
2022-09-22T06:11:46.035Z,70.54
2022-09-22T06:14:14.035Z,70.74
2022-09-22T06:16:44.952Z,70.68
2022-09-22T06:19:13.013Z,70.91
2022-09-22T06:21:41.090Z,70.91
2022-09-22T06:24:09.094Z,71.30
2022-09-22T06:26:37.107Z,71.39
2022-09-22T06:29:10.923Z,70.83
2022-09-22T06:31:39.984Z,71.03
2022-09-22T06:34:08.500Z,71.56
2022-09-22T06:36:36.640Z,71.80
2022-09-22T06:39:05.735Z,71.28
2022-09-22T06:41:34.779Z,71.44
2022-09-22T06:44:03.425Z,71.86
2022-09-22T06:46:35.358Z,71.78
2022-09-22T06:49:03.316Z,71.53
2022-09-22T06:51:32.924Z,71.29
2022-09-22T06:54:02.232Z,71.86
2022-09-22T06:56:30.764Z,72.13
2022-09-22T06:59:10.026Z,71.84
2022-09-22T07:01:41.086Z,72.61
2022-09-22T07:04:09.860Z,72.21
2022-09-22T07:06:40.695Z,72.63
2022-09-22T07:09:09.541Z,72.58
2022-09-22T07:11:40.132Z,72.42
2022-09-22T07:14:10.385Z,72.91
2022-09-22T07:16:40.856Z,72.83
2022-09-22T07:19:09.060Z,73.31
2022-09-22T07:21:38.385Z,73.09
2022-09-22T07:24:08.866Z,73.29
2022-09-22T07:26:38.666Z,73.46
2022-09-22T07:29:11.607Z,73.47
2022-09-22T07:31:42.033Z,73.55
2022-09-22T07:34:10.741Z,73.58
2022-09-22T07:36:39.181Z,73.48
2022-09-22T07:39:10.463Z,73.54
2022-09-22T07:41:41.855Z,73.46
2022-09-22T07:44:29.027Z,73.49
2022-09-22T07:46:58.971Z,73.33
2022-09-22T07:49:28.520Z,73.25
2022-09-22T07:51:57.276Z,73.17
2022-09-22T07:54:26.924Z,73.23
2022-09-22T07:56:58.747Z,73.47
2022-09-22T07:59:27.713Z,73.21
2022-09-22T08:01:55.871Z,73.30
2022-09-22T08:04:27.091Z,73.11
2022-09-22T08:06:56.442Z,73.09
2022-09-22T08:09:26.078Z,73.14
2022-09-22T08:11:55.267Z,73.08
2022-09-22T08:14:24.102Z,73.01
2022-09-22T08:16:53.662Z,73.08
2022-09-22T08:19:25.478Z,73.10
2022-09-22T08:21:57.754Z,72.84
2022-09-22T08:24:25.675Z,72.83
2022-09-22T08:27:07.632Z,72.89
2022-09-22T08:29:35.858Z,72.83
2022-09-22T08:32:19.735Z,72.92
2022-09-22T08:34:50.476Z,72.86
2022-09-22T08:37:18.426Z,72.79
2022-09-22T08:39:46.529Z,72.83
2022-09-22T08:42:20.911Z,72.68
2022-09-22T08:44:57.811Z,72.60
2022-09-22T08:47:54.736Z,72.66
2022-09-22T08:50:49.541Z,72.45
2022-09-22T08:53:21.603Z,72.41
2022-09-22T08:56:00.689Z,72.36
2022-09-22T08:58:40.510Z,72.04
2022-09-22T09:01:21.752Z,71.98
2022-09-22T09:04:02.595Z,71.78
2022-09-22T09:06:40.209Z,71.75
2022-09-22T09:09:33.864Z,71.86
2022-09-22T09:12:13.809Z,71.58
2022-09-22T09:15:06.282Z,71.60
2022-09-22T09:17:37.521Z,71.57
2022-09-22T09:20:18.097Z,71.44
2022-09-22T09:22:52.921Z,71.20
2022-09-22T09:25:37.760Z,71.12
2022-09-22T09:28:08.500Z,71.02
2022-09-22T09:30:44.831Z,71.14
2022-09-22T09:33:23.500Z,71.07
2022-09-22T09:35:53.703Z,71.02
2022-09-22T09:38:29.734Z,71.02
2022-09-22T09:41:10.049Z,70.86
2022-09-22T09:43:43.060Z,70.72
2022-09-22T09:46:31.704Z,70.78
2022-09-22T09:49:09.154Z,70.76
2022-09-22T09:51:40.565Z,70.67
2022-09-22T09:54:16.908Z,70.55
2022-09-22T09:57:09.660Z,70.25
2022-09-22T10:00:05.337Z,70.25
2022-09-22T10:02:36.640Z,70.17
2022-09-22T10:05:08.763Z,70.17
2022-09-22T10:07:44.111Z,69.86
2022-09-22T10:10:34.259Z,69.71
2022-09-22T10:13:26.300Z,70.05
2022-09-22T10:16:18.467Z,69.92
2022-09-22T10:18:46.901Z,69.52
2022-09-22T10:21:16.761Z,69.75
2022-09-22T10:23:45.638Z,69.30
2022-09-22T10:26:21.740Z,69.20
2022-09-22T10:29:09.338Z,69.15
2022-09-22T10:31:38.583Z,68.78
2022-09-22T10:34:08.249Z,68.62
2022-09-22T10:36:44.716Z,68.62
2022-09-22T10:39:18.708Z,68.47
2022-09-22T10:41:49.760Z,68.39
2022-09-22T10:44:37.996Z,68.26
2022-09-22T10:47:33.379Z,67.79
2022-09-22T10:50:28.691Z,67.58
2022-09-22T10:53:05.825Z,67.41
2022-09-22T10:55:36.914Z,67.23
2022-09-22T10:58:28.697Z,66.99
2022-09-22T11:01:12.625Z,66.71
2022-09-22T11:04:17.488Z,66.47
2022-09-22T11:07:25.450Z,66.32
2022-09-22T11:10:31.728Z,66.03
2022-09-22T11:13:06.802Z,65.84
2022-09-22T11:15:55.964Z,65.58
2022-09-22T11:18:43.408Z,65.36
2022-09-22T11:21:21.971Z,65.33
2022-09-22T11:24:23.838Z,65.25
2022-09-22T11:26:53.934Z,65.08
2022-09-22T11:30:01.232Z,65.13
2022-09-22T11:32:55.696Z,64.93
2022-09-22T11:35:55.450Z,64.84
2022-09-22T11:38:46.448Z,64.67
2022-09-22T11:41:29.406Z,64.67
2022-09-22T11:44:15.042Z,64.47
2022-09-22T11:47:01.174Z,64.38
2022-09-22T11:49:47.461Z,64.38
2022-09-22T11:52:30.265Z,64.28
2022-09-22T11:55:15.137Z,64.40
2022-09-22T11:57:48.528Z,64.24
2022-09-22T12:00:19.388Z,64.29
2022-09-22T12:03:01.808Z,64.23
2022-09-22T12:05:39.419Z,64.10
2022-09-22T12:08:13.202Z,64.00
2022-09-22T12:10:44.665Z,64.18
2022-09-22T12:13:16.650Z,64.02
2022-09-22T12:15:58.857Z,63.89
2022-09-22T12:18:35.669Z,63.94
2022-09-22T12:21:16.518Z,63.86
2022-09-22T12:23:51.278Z,63.79
2022-09-22T12:26:28.710Z,63.78
2022-09-22T12:28:58.785Z,63.65
2022-09-22T12:31:36.167Z,63.53
2022-09-22T12:34:07.184Z,63.70
2022-09-22T12:36:39.609Z,63.53
2022-09-22T12:39:10.046Z,63.49
2022-09-22T12:41:50.110Z,63.26
2022-09-22T12:44:24.184Z,63.46
2022-09-22T12:46:53.285Z,63.28
2022-09-22T12:49:23.432Z,63.11
2022-09-22T12:51:53.335Z,63.02
2022-09-22T12:54:48.326Z,63.10
2022-09-22T12:57:26.627Z,63.01
2022-09-22T13:00:32.115Z,63.01
2022-09-22T13:03:02.637Z,62.94
2022-09-22T13:05:46.775Z,62.80
2022-09-22T13:08:47.061Z,62.60
2022-09-22T13:11:16.625Z,62.72
2022-09-22T13:13:46.848Z,62.75
2022-09-22T13:16:38.946Z,62.74
2022-09-22T13:19:14.861Z,62.47
2022-09-22T13:21:42.888Z,62.56
2022-09-22T13:24:25.116Z,62.07
2022-09-22T13:27:05.947Z,62.47
2022-09-22T13:29:34.535Z,62.30
2022-09-22T13:32:18.717Z,62.32
2022-09-22T13:34:47.016Z,62.43
2022-09-22T13:37:20.229Z,62.25
2022-09-22T13:39:50.502Z,62.10
2022-09-22T13:42:23.453Z,62.10
2022-09-22T13:45:01.223Z,62.00
2022-09-22T13:47:29.969Z,62.03
2022-09-22T13:50:04.451Z,61.93
2022-09-22T13:52:35.636Z,61.88
2022-09-22T13:55:10.167Z,61.88
2022-09-22T13:57:40.393Z,61.81
2022-09-22T14:00:17.678Z,61.75
2022-09-22T14:02:46.363Z,61.88
2022-09-22T14:05:20.471Z,61.71
2022-09-22T14:08:10.715Z,61.68
2022-09-22T14:10:38.220Z,61.70
2022-09-22T14:13:44.407Z,61.68
2022-09-22T14:16:21.255Z,61.64
2022-09-22T14:18:53.337Z,61.66
2022-09-22T14:21:22.547Z,61.68
2022-09-22T14:23:52.905Z,61.67
2022-09-22T14:26:33.674Z,61.47
2022-09-22T14:29:15.559Z,61.36
2022-09-22T14:31:47.258Z,61.37
2022-09-22T14:34:21.075Z,61.43
2022-09-22T14:36:52.293Z,61.73
2022-09-22T14:39:31.319Z,61.20
2022-09-22T14:42:09.382Z,61.05
2022-09-22T14:44:44.230Z,61.05
2022-09-22T14:47:27.654Z,61.06
2022-09-22T14:50:12.055Z,61.21
2022-09-22T14:52:47.367Z,61.10
2022-09-22T14:55:18.153Z,61.29
2022-09-22T14:57:50.057Z,61.17
2022-09-22T15:00:37.966Z,60.99
2022-09-22T15:03:16.632Z,60.93
2022-09-22T15:05:46.088Z,60.87
2022-09-22T15:08:18.166Z,60.35
2022-09-22T15:10:54.317Z,60.16
2022-09-22T15:13:30.699Z,60.00
2022-09-22T15:16:00.176Z,59.72
2022-09-22T15:18:30.743Z,59.71
2022-09-22T15:21:05.618Z,59.35
2022-09-22T15:23:43.869Z,59.49
2022-09-22T15:26:25.602Z,59.05
2022-09-22T15:28:55.148Z,59.00
2022-09-22T15:31:26.864Z,58.82
2022-09-22T15:33:56.192Z,58.74
2022-09-22T15:36:25.754Z,58.40
2022-09-22T15:39:00.591Z,58.50
2022-09-22T15:41:28.778Z,58.42
2022-09-22T15:43:56.968Z,58.46
2022-09-22T15:46:34.197Z,57.91
2022-09-22T15:49:05.623Z,58.01
2022-09-22T15:51:33.644Z,57.82
2022-09-22T15:54:01.754Z,57.91
2022-09-22T15:56:31.369Z,57.75
2022-09-22T15:59:01.218Z,57.55
2022-09-22T16:01:30.526Z,57.73
2022-09-22T16:04:04.742Z,57.56
2022-09-22T16:06:32.755Z,57.58
2022-09-22T16:09:00.748Z,57.23
2022-09-22T16:11:31.985Z,57.57
2022-09-22T16:14:03.771Z,57.33
2022-09-22T16:16:35.670Z,57.40
2022-09-22T16:19:03.890Z,57.29
2022-09-22T16:21:33.248Z,57.22
2022-09-22T16:24:03.962Z,57.04
2022-09-22T16:26:33.637Z,56.66
2022-09-22T16:29:01.982Z,57.14
2022-09-22T16:31:30.514Z,57.08
2022-09-22T16:34:02.093Z,56.94
2022-09-22T16:36:35.376Z,56.80
2022-09-22T16:39:04.617Z,56.88
2022-09-22T16:41:34.082Z,57.00
2022-09-22T16:44:03.195Z,56.88
2022-09-22T16:46:34.354Z,56.98
2022-09-22T16:49:05.875Z,56.54
2022-09-22T16:51:35.847Z,56.46
2022-09-22T16:54:05.572Z,56.92
2022-09-22T16:56:35.539Z,56.76
2022-09-22T16:59:05.539Z,56.44
2022-09-22T17:01:36.622Z,56.59
2022-09-22T17:04:08.114Z,56.82
2022-09-22T17:06:38.326Z,56.15
2022-09-22T17:09:07.699Z,56.94
2022-09-22T17:11:38.067Z,56.27
2022-09-22T17:14:12.121Z,56.37
2022-09-22T17:16:42.080Z,56.55
2022-09-22T17:19:13.086Z,56.30
2022-09-22T17:21:41.186Z,56.73
2022-09-22T17:24:10.136Z,56.24
2022-09-22T17:26:41.400Z,56.71
2022-09-22T17:29:10.937Z,56.27
2022-09-22T17:31:41.696Z,57.06
2022-09-22T17:34:12.053Z,56.40
2022-09-22T17:36:41.391Z,56.32
2022-09-22T17:39:10.764Z,56.78
2022-09-22T17:41:47.065Z,56.38
2022-09-22T17:44:20.907Z,56.77
2022-09-22T17:47:07.227Z,56.65
2022-09-22T17:49:54.764Z,56.49
2022-09-22T17:52:40.147Z,56.57
2022-09-22T17:55:14.228Z,56.07
2022-09-22T17:57:43.766Z,56.28
2022-09-22T18:00:14.208Z,56.42
2022-09-22T18:02:42.456Z,56.89
2022-09-22T18:05:14.133Z,56.40
2022-09-22T18:07:42.350Z,56.80
2022-09-22T18:10:18.045Z,56.70
2022-09-22T18:12:46.055Z,56.76
2022-09-22T18:15:17.138Z,56.58
2022-09-22T18:17:46.067Z,56.67
2022-09-22T18:20:18.177Z,57.01
2022-09-22T18:22:48.876Z,56.52
2022-09-22T18:25:19.396Z,56.95
2022-09-22T18:27:48.627Z,56.63
2022-09-22T18:30:23.169Z,56.60
2022-09-22T18:32:51.987Z,56.73
2022-09-22T18:35:21.801Z,56.87
2022-09-22T18:37:51.240Z,57.15
2022-09-22T18:40:19.645Z,57.06
2022-09-22T18:42:47.517Z,57.31
2022-09-22T18:45:15.458Z,57.08
2022-09-22T18:47:44.317Z,57.17
2022-09-22T18:50:13.090Z,57.25
2022-09-22T18:52:46.765Z,57.28
2022-09-22T18:55:17.351Z,57.43
2022-09-22T18:57:47.525Z,57.23
2022-09-22T19:00:16.216Z,57.52
2022-09-22T19:02:44.267Z,57.37
2022-09-22T19:05:12.465Z,57.67
2022-09-22T19:07:43.617Z,57.84
2022-09-22T19:10:16.225Z,57.69
2022-09-22T19:12:44.209Z,57.69
2022-09-22T19:15:15.280Z,57.85
2022-09-22T19:17:44.885Z,57.77
2022-09-22T19:20:15.231Z,58.06
2022-09-22T19:22:43.127Z,58.05
2022-09-22T19:25:11.675Z,58.07
2022-09-22T19:27:41.134Z,58.19
2022-09-22T19:30:12.752Z,58.08
2022-09-22T19:32:41.473Z,58.48
2022-09-22T19:35:09.987Z,58.65
2022-09-22T19:37:39.648Z,58.39
2022-09-22T19:40:10.930Z,58.26
2022-09-22T19:42:40.637Z,58.90
2022-09-22T19:45:09.430Z,58.28
2022-09-22T19:47:37.527Z,59.02
2022-09-22T19:50:06.670Z,58.47
2022-09-22T19:52:38.254Z,59.04
2022-09-22T19:55:07.925Z,59.10
2022-09-22T19:57:41.211Z,59.16
2022-09-22T20:00:13.387Z,58.77
2022-09-22T20:02:42.182Z,59.72
2022-09-22T20:05:19.226Z,59.65
2022-09-22T20:07:47.269Z,59.77
2022-09-22T20:10:17.129Z,59.82
2022-09-22T20:12:45.161Z,59.05
2022-09-22T20:15:15.177Z,59.71
2022-09-22T20:17:46.221Z,59.08
2022-09-22T20:20:15.694Z,59.54
2022-09-22T20:22:45.417Z,59.41
2022-09-22T20:25:23.131Z,59.46
2022-09-22T20:27:51.418Z,59.80
2022-09-22T20:30:21.177Z,59.73
2022-09-22T20:32:51.390Z,59.86
2022-09-22T20:35:22.014Z,59.71
2022-09-22T20:37:51.631Z,60.07
2022-09-22T20:40:23.173Z,60.19
2022-09-22T20:42:54.331Z,59.84
2022-09-22T20:45:24.838Z,60.46
2022-09-22T20:47:53.075Z,60.26
2022-09-22T20:50:21.636Z,60.69
2022-09-22T20:52:50.617Z,60.54
2022-09-22T20:55:18.869Z,60.09
2022-09-22T20:57:47.084Z,60.35
2022-09-22T21:00:16.378Z,61.25
2022-09-22T21:02:45.880Z,60.94
2022-09-22T21:05:13.981Z,61.08
2022-09-22T21:07:41.984Z,60.95
2022-09-22T21:10:28.154Z,60.95
2022-09-22T21:12:56.603Z,61.60
2022-09-22T21:15:24.670Z,60.64
2022-09-22T21:17:54.343Z,61.40
2022-09-22T21:20:23.253Z,61.40
2022-09-22T21:22:52.727Z,61.17
2022-09-22T21:25:20.847Z,61.05
2022-09-22T21:27:48.840Z,61.90
2022-09-22T21:30:16.860Z,61.76
2022-09-22T21:32:45.104Z,61.34
2022-09-22T21:35:16.788Z,61.36
2022-09-22T21:37:45.964Z,62.36
2022-09-22T21:40:14.489Z,61.44
2022-09-22T21:42:45.024Z,61.88
2022-09-22T21:45:13.119Z,62.19
2022-09-22T21:47:41.189Z,62.61
2022-09-22T21:50:10.235Z,62.73
2022-09-22T21:52:39.769Z,61.81
2022-09-22T21:55:08.814Z,62.55
2022-09-22T21:57:36.802Z,62.50
2022-09-22T22:00:07.758Z,62.35
2022-09-22T22:03:01.908Z,62.73
2022-09-22T22:05:31.080Z,62.75
2022-09-22T22:08:00.646Z,62.79
2022-09-22T22:10:28.780Z,62.79
2022-09-22T22:12:57.072Z,63.04
2022-09-22T22:15:25.274Z,63.29
2022-09-22T22:17:53.960Z,63.33
2022-09-22T22:20:21.984Z,63.03
2022-09-22T22:22:50.034Z,63.91
2022-09-22T22:25:23.783Z,63.66
2022-09-22T22:27:51.936Z,63.35
2022-09-22T22:30:19.943Z,63.56
2022-09-22T22:32:50.785Z,64.09
2022-09-22T22:35:20.142Z,63.64
2022-09-22T22:37:48.221Z,64.01
2022-09-22T22:40:18.328Z,63.83
2022-09-22T22:42:48.024Z,64.04
2022-09-22T22:45:16.220Z,63.83
2022-09-22T22:47:44.265Z,63.96
2022-09-22T22:50:12.265Z,64.21
2022-09-22T22:52:41.428Z,64.24
2022-09-22T22:55:10.718Z,64.36
2022-09-22T22:57:38.616Z,64.88
2022-09-22T23:00:10.152Z,64.73
2022-09-22T23:02:38.725Z,64.47
2022-09-22T23:05:07.788Z,64.95
2022-09-22T23:07:36.043Z,65.05
2022-09-22T23:10:07.355Z,64.97
2022-09-22T23:12:36.283Z,65.27
2022-09-22T23:15:04.495Z,64.89
2022-09-22T23:17:33.908Z,64.83
2022-09-22T23:20:02.363Z,65.48
2022-09-22T23:22:30.655Z,65.09
2022-09-22T23:24:58.697Z,65.22
2022-09-22T23:27:28.639Z,65.31
2022-09-22T23:29:57.256Z,65.48
2022-09-22T23:32:25.633Z,65.85
2022-09-22T23:34:55.003Z,65.26
2022-09-22T23:37:25.057Z,66.16
2022-09-22T23:39:53.587Z,65.23
2022-09-22T23:42:22.024Z,65.56
2022-09-22T23:44:51.610Z,65.94
2022-09-22T23:47:19.686Z,65.85
2022-09-22T23:49:48.091Z,66.01
2022-09-22T23:52:17.791Z,66.26
2022-09-22T23:54:46.558Z,66.15
2022-09-22T23:57:14.640Z,66.17
2022-09-22T23:59:42.533Z,66.21
